createdAt,value
2023-01-11T00:00:36.155Z,-7.37
2023-01-11T00:03:04.849Z,-7.37
2023-01-11T00:05:32.643Z,-7.41
2023-01-11T00:08:00.053Z,-7.45
2023-01-11T00:10:33.035Z,-7.47
2023-01-11T00:13:01.223Z,-7.51
2023-01-11T00:15:28.447Z,-7.56
2023-01-11T00:17:56.218Z,-7.54
2023-01-11T00:20:24.897Z,-7.52
2023-01-11T00:22:52.389Z,-7.55
2023-01-11T00:25:20.914Z,-7.55
2023-01-11T00:27:49.680Z,-7.56
2023-01-11T00:30:18.743Z,-7.55
2023-01-11T00:32:46.892Z,-7.54
2023-01-11T00:35:14.123Z,-7.52
2023-01-11T00:37:41.189Z,-7.51
2023-01-11T00:40:09.080Z,-7.52
2023-01-11T00:42:55.723Z,-7.53
2023-01-11T00:45:41.909Z,-7.56
2023-01-11T00:48:10.946Z,-7.59
2023-01-11T00:50:40.415Z,-7.62
2023-01-11T00:53:11.761Z,-7.60
2023-01-11T00:55:39.280Z,-7.58
2023-01-11T00:58:10.980Z,-7.59
2023-01-11T01:00:38.320Z,-7.59
2023-01-11T01:03:07.113Z,-7.59
2023-01-11T01:05:37.292Z,-7.60
2023-01-11T01:08:04.454Z,-7.62
2023-01-11T01:10:32.492Z,-7.61
2023-01-11T01:13:26.104Z,-7.62
2023-01-11T01:15:58.760Z,-7.67
2023-01-11T01:18:27.160Z,-7.72
2023-01-11T01:20:54.366Z,-7.76
2023-01-11T01:23:21.448Z,-7.78
2023-01-11T01:25:48.840Z,-7.81
2023-01-11T01:28:16.051Z,-7.83
2023-01-11T01:30:44.721Z,-7.85
2023-01-11T01:33:13.355Z,-7.90
2023-01-11T01:35:43.654Z,-7.93
2023-01-11T01:38:13.057Z,-7.94
2023-01-11T01:40:43.735Z,-7.93
2023-01-11T01:43:16.203Z,-7.97
2023-01-11T01:45:45.765Z,-8.02
2023-01-11T01:48:15.973Z,-8.06
2023-01-11T01:50:53.859Z,-8.13
2023-01-11T01:53:30.028Z,-8.21
2023-01-11T01:55:58.957Z,-8.25
2023-01-11T01:58:33.266Z,-8.27
2023-01-11T02:01:20.318Z,-8.30
2023-01-11T02:03:47.638Z,-8.34
2023-01-11T02:06:17.056Z,-8.37
2023-01-11T02:08:45.582Z,-8.36
2023-01-11T02:11:30.146Z,-8.39
2023-01-11T02:14:03.339Z,-8.42
2023-01-11T02:16:31.833Z,-8.47
2023-01-11T02:18:59.618Z,-8.49
2023-01-11T02:21:57.349Z,-8.55
2023-01-11T02:24:48.487Z,-8.63
2023-01-11T02:27:39.443Z,-8.63
2023-01-11T02:30:32.671Z,-8.68
2023-01-11T02:33:07.241Z,-8.71
2023-01-11T02:35:52.603Z,-8.72
2023-01-11T02:38:33.822Z,-8.74
2023-01-11T02:41:10.043Z,-8.79
2023-01-11T02:44:21.108Z,-8.84
2023-01-11T02:46:49.888Z,-8.87
2023-01-11T02:49:40.684Z,-8.87
2023-01-11T02:52:19.655Z,-8.87
2023-01-11T02:54:48.272Z,-8.89
2023-01-11T02:57:16.035Z,-8.87
2023-01-11T02:59:44.727Z,-8.91
2023-01-11T03:03:49.666Z,-8.94
2023-01-11T03:06:20.317Z,-9.05
2023-01-11T03:09:08.617Z,-9.08
2023-01-11T03:11:57.814Z,-9.13
2023-01-11T03:14:48.009Z,-9.20
2023-01-11T03:17:30.268Z,-9.28
2023-01-11T03:20:32.434Z,-9.33
2023-01-11T03:23:18.846Z,-9.33
2023-01-11T03:26:23.426Z,-9.35
2023-01-11T03:29:06.403Z,-9.37
2023-01-11T03:31:53.651Z,-9.42
2023-01-11T03:34:23.936Z,-9.44
2023-01-11T03:36:59.342Z,-9.43
2023-01-11T03:39:36.298Z,-9.44
2023-01-11T03:42:07.407Z,-9.47
2023-01-11T03:44:42.377Z,-9.53
2023-01-11T03:47:13.128Z,-9.53
2023-01-11T06:05:02.501Z,-10.09
2023-01-11T06:07:30.540Z,-9.97
2023-01-11T06:09:59.888Z,-9.99
2023-01-11T06:12:27.506Z,-10.03
2023-01-11T06:14:59.042Z,-9.99
2023-01-11T06:17:27.470Z,-9.98
2023-01-11T06:19:56.521Z,-9.97
2023-01-11T06:22:26.403Z,-10.01
2023-01-11T06:24:53.776Z,-10.08
2023-01-11T06:27:25.516Z,-10.08
2023-01-11T06:29:53.456Z,-10.07
2023-01-11T06:32:21.683Z,-10.07
2023-01-11T06:34:49.090Z,-10.09
2023-01-11T06:37:16.517Z,-10.15
2023-01-11T06:39:44.005Z,-10.18
2023-01-11T06:42:11.519Z,-10.20
2023-01-11T06:44:38.879Z,-10.17
2023-01-11T06:47:07.251Z,-10.14
2023-01-11T06:49:36.033Z,-10.09
2023-01-11T06:52:07.354Z,-10.02
2023-01-11T08:19:33.065Z,-8.05
2023-01-11T08:22:01.747Z,-7.45
2023-01-11T08:24:31.525Z,-7.03
2023-01-11T08:27:03.594Z,-6.63
2023-01-11T08:29:32.084Z,-6.33
2023-01-11T08:32:03.961Z,-6.33
2023-01-11T08:34:33.668Z,-6.55
2023-01-11T08:37:02.555Z,-6.88
2023-01-11T08:39:33.277Z,-7.20
2023-01-11T08:42:02.783Z,-7.46
2023-01-11T08:44:34.082Z,-7.52
2023-01-11T08:47:05.796Z,-7.51
2023-01-11T08:49:34.518Z,-7.57
2023-01-11T08:52:01.943Z,-7.73
2023-01-11T08:54:30.262Z,-7.79
2023-01-11T08:56:59.810Z,-7.79
2023-01-11T08:59:28.222Z,-7.66
2023-01-11T09:01:57.412Z,-7.39
2023-01-11T09:04:26.264Z,-7.16
2023-01-11T09:06:55.280Z,-7.04
2023-01-11T09:09:24.148Z,-7.09
2023-01-11T09:11:54.349Z,-7.23
2023-01-11T09:14:24.662Z,-7.43
2023-01-11T09:16:53.700Z,-7.51
2023-01-11T09:19:21.763Z,-7.58
2023-01-11T09:21:51.676Z,-7.64
2023-01-11T09:24:21.192Z,-7.59
2023-01-11T09:26:51.976Z,-7.42
2023-01-11T09:29:22.649Z,-7.00
2023-01-11T09:31:51.781Z,-6.47
2023-01-11T09:34:26.782Z,-6.12
2023-01-11T09:36:59.162Z,-5.81
2023-01-11T09:39:29.229Z,-5.54
2023-01-11T09:42:25.041Z,-5.40
2023-01-11T09:45:23.324Z,-5.48
2023-01-11T09:48:26.482Z,-5.71
2023-01-11T09:50:56.460Z,-5.93
2023-01-11T09:53:37.216Z,-6.10
2023-01-11T09:56:08.712Z,-6.22
2023-01-11T09:59:19.017Z,-6.26
2023-01-11T10:02:00.974Z,-6.35
2023-01-11T10:04:41.758Z,-6.54
2023-01-11T10:07:51.196Z,-6.74
2023-01-11T10:18:22.341Z,-6.89
2023-01-11T10:18:27.913Z,-6.89
2023-01-11T10:20:48.151Z,-6.86
2023-01-11T10:23:24.968Z,-6.86
2023-01-11T10:25:56.208Z,-6.88
2023-01-11T10:28:33.424Z,-6.89
2023-01-11T10:31:30.404Z,-6.90
2023-01-11T10:34:32.618Z,-6.88
2023-01-11T10:38:04.888Z,-6.94
2023-01-11T10:41:03.617Z,-6.97
2023-01-11T10:43:35.075Z,-6.88
2023-01-11T10:46:11.359Z,-6.82
2023-01-11T10:48:42.879Z,-6.81
2023-01-11T10:51:26.783Z,-6.83
2023-01-11T10:54:06.876Z,-6.91
2023-01-11T10:57:02.808Z,-6.92
2023-01-11T10:59:46.868Z,-6.85
2023-01-11T11:02:51.480Z,-6.72
2023-01-11T11:05:27.296Z,-6.62
2023-01-11T11:08:10.833Z,-6.62
2023-01-11T11:11:37.936Z,-6.65
2023-01-11T11:14:28.720Z,-6.68
2023-01-11T11:17:25.331Z,-6.71
2023-01-11T11:19:52.823Z,-6.77
2023-01-11T11:22:20.757Z,-6.81
2023-01-11T11:25:05.327Z,-6.84
2023-01-11T11:27:49.738Z,-6.89
2023-01-11T11:30:37.726Z,-6.88
2023-01-11T11:33:31.377Z,-6.87
2023-01-11T11:36:10.367Z,-6.84
2023-01-11T11:38:39.355Z,-6.84
2023-01-11T11:41:18.183Z,-6.87
2023-01-11T11:43:50.752Z,-6.94
2023-01-11T11:46:29.520Z,-6.96
2023-01-11T11:49:17.694Z,-6.96
2023-01-11T11:51:50.464Z,-6.90
2023-01-11T11:54:29.380Z,-6.90
2023-01-11T11:56:57.978Z,-6.91
2023-01-11T16:16:40.954Z,-7.83
2023-01-11T16:19:15.399Z,-7.64
2023-01-11T16:21:43.915Z,-7.60
2023-01-11T16:24:17.323Z,-7.57
2023-01-11T16:26:44.489Z,-7.54
2023-01-11T16:29:20.667Z,-7.49
2023-01-11T16:32:20.267Z,-7.49
2023-01-11T16:34:56.867Z,-7.51
2023-01-11T16:37:58.488Z,-7.49
2023-01-11T16:40:40.265Z,-7.46
2023-01-11T16:43:28.025Z,-7.41
2023-01-11T16:46:05.970Z,-7.35
2023-01-11T16:48:40.681Z,-7.31
2023-01-11T16:51:17.144Z,-7.27
2023-01-11T16:53:58.756Z,-7.27
2023-01-11T16:56:29.236Z,-7.29
2023-01-11T16:59:47.687Z,-7.28
2023-01-11T17:02:29.426Z,-7.24
2023-01-11T17:04:58.608Z,-7.22
2023-01-11T17:07:34.421Z,-7.21
2023-01-11T17:10:24.283Z,-7.21
2023-01-11T17:13:08.548Z,-7.20
2023-01-11T17:16:12.864Z,-7.21
2023-01-11T17:19:05.937Z,-7.23
2023-01-11T17:21:46.345Z,-7.24
2023-01-11T17:24:17.438Z,-7.23
2023-01-11T17:26:46.710Z,-7.23
2023-01-11T17:29:36.222Z,-7.23
2023-01-11T17:32:10.291Z,-7.21
2023-01-11T17:34:40.278Z,-7.19
2023-01-11T17:37:25.611Z,-7.17
2023-01-11T17:39:58.393Z,-7.13
2023-01-11T17:42:44.794Z,-7.11
2023-01-11T17:45:29.608Z,-7.10
2023-01-11T17:47:59.198Z,-7.09
2023-01-11T17:50:33.654Z,-7.09
2023-01-11T17:53:20.735Z,-7.09
2023-01-11T17:55:56.301Z,-7.08
2023-01-11T17:58:28.103Z,-7.04
2023-01-11T18:01:08.128Z,-7.06
2023-01-11T18:03:48.777Z,-7.07
2023-01-11T18:06:34.722Z,-7.10
2023-01-11T18:09:04.831Z,-7.13
2023-01-11T18:11:40.126Z,-7.12
2023-01-11T18:14:18.169Z,-7.08
2023-01-11T18:17:03.766Z,-7.04
2023-01-11T18:20:22.665Z,-7.03
2023-01-11T18:23:25.131Z,-7.04
2023-01-11T18:26:35.504Z,-7.04
2023-01-11T18:29:39.184Z,-7.09
2023-01-11T18:32:09.923Z,-7.12
2023-01-11T18:34:39.832Z,-7.14
2023-01-11T18:37:09.480Z,-7.17
2023-01-11T18:39:36.909Z,-7.18
2023-01-11T18:42:15.408Z,-7.20
2023-01-11T18:44:45.059Z,-7.22
2023-01-11T18:47:22.661Z,-7.23
2023-01-11T18:50:07.926Z,-7.23
2023-01-11T18:52:37.364Z,-7.24
2023-01-11T18:55:05.227Z,-7.27
2023-01-11T18:57:35.209Z,-7.31
2023-01-11T19:00:04.779Z,-7.35
2023-01-11T19:02:45.581Z,-7.39
2023-01-11T19:05:38.790Z,-7.44
2023-01-11T19:08:32.271Z,-7.43
2023-01-11T19:11:03.938Z,-7.44
2023-01-11T19:13:36.674Z,-7.45
2023-01-11T19:16:05.795Z,-7.46
2023-01-11T19:18:35.329Z,-7.47
2023-01-11T19:21:10.717Z,-7.50
2023-01-11T19:23:41.809Z,-7.51
2023-01-11T19:26:13.980Z,-7.49
2023-01-11T19:28:43.774Z,-7.50
2023-01-11T19:31:14.868Z,-7.49
2023-01-11T19:33:44.513Z,-7.52
2023-01-11T19:36:14.370Z,-7.53
2023-01-11T19:38:44.281Z,-7.55
2023-01-11T19:41:15.536Z,-7.58
2023-01-11T19:43:47.436Z,-7.64
2023-01-11T19:46:30.726Z,-7.68
2023-01-11T19:49:31.401Z,-7.71
2023-01-11T19:52:00.694Z,-7.75
2023-01-11T19:54:30.507Z,-7.75
2023-01-11T19:56:58.701Z,-7.77
2023-01-11T19:59:27.681Z,-7.79
2023-01-11T22:08:54.117Z,-8.72
2023-01-11T22:11:23.648Z,-8.58
2023-01-11T22:13:52.020Z,-8.55
2023-01-11T22:16:24.282Z,-8.53
2023-01-11T22:18:52.859Z,-8.52
2023-01-11T22:21:22.300Z,-8.51
2023-01-11T22:24:05.601Z,-8.49
2023-01-11T22:26:52.868Z,-8.50
2023-01-11T22:29:30.550Z,-8.50
2023-01-11T22:32:20.543Z,-8.48
2023-01-11T22:35:02.999Z,-8.48
2023-01-11T22:37:37.677Z,-8.50
2023-01-11T22:40:28.660Z,-8.51
2023-01-11T22:43:04.095Z,-8.52
2023-01-11T22:45:33.137Z,-8.53
2023-01-11T22:48:00.421Z,-8.55
2023-01-11T22:50:31.689Z,-8.56
2023-01-11T22:53:00.983Z,-8.57
2023-01-11T22:55:34.493Z,-8.61
2023-01-11T22:58:01.692Z,-8.67
2023-01-11T23:00:30.622Z,-8.67
2023-01-11T23:03:00.203Z,-8.67
2023-01-11T23:05:28.513Z,-8.67
2023-01-11T23:07:56.214Z,-8.68
2023-01-11T23:10:25.193Z,-8.69
2023-01-11T23:13:11.768Z,-8.70
2023-01-11T23:15:39.800Z,-8.69
2023-01-11T23:18:09.151Z,-8.69
2023-01-11T23:20:43.208Z,-8.68
2023-01-11T23:23:11.233Z,-8.68
2023-01-11T23:25:43.080Z,-8.68
2023-01-11T23:28:11.413Z,-8.68
2023-01-11T23:30:38.825Z,-8.67
2023-01-11T23:33:10.868Z,-8.66
2023-01-11T23:35:42.542Z,-8.66
2023-01-11T23:38:09.878Z,-8.68
2023-01-11T23:40:57.928Z,-8.68
2023-01-11T23:43:25.387Z,-8.70
2023-01-11T23:46:13.564Z,-8.69
2023-01-11T23:48:41.208Z,-8.70
2023-01-11T23:51:08.297Z,-8.70
2023-01-11T23:53:36.706Z,-8.75
2023-01-11T23:56:05.113Z,-8.76
2023-01-11T23:58:32.717Z,-8.77
